sensor_id;sensor_type;location;lat;lon;timestamp;P1;durP1;ratioP1;P2;durP2;ratioP2
36137;SDS011;22194;50.046;21.954;2022-08-01T00:01:14;1.10;;;0.90;;
36137;SDS011;22194;50.046;21.954;2022-08-01T00:03:42;2.20;;;1.30;;
36137;SDS011;22194;50.046;21.954;2022-08-01T00:06:10;1.50;;;1.40;;
36137;SDS011;22194;50.046;21.954;2022-08-01T00:08:38;1.50;;;1.20;;
36137;SDS011;22194;50.046;21.954;2022-08-01T00:11:06;1.20;;;1.10;;
36137;SDS011;22194;50.046;21.954;2022-08-01T00:13:36;3.00;;;1.20;;
36137;SDS011;22194;50.046;21.954;2022-08-01T00:16:04;1.20;;;1.10;;
36137;SDS011;22194;50.046;21.954;2022-08-01T00:18:32;2.30;;;1.50;;
36137;SDS011;22194;50.046;21.954;2022-08-01T00:21:00;1.50;;;1.30;;
36137;SDS011;22194;50.046;21.954;2022-08-01T00:23:28;3.30;;;1.50;;
36137;SDS011;22194;50.046;21.954;2022-08-01T00:25:55;1.30;;;1.10;;
36137;SDS011;22194;50.046;21.954;2022-08-01T00:28:23;1.20;;;1.10;;
36137;SDS011;22194;50.046;21.954;2022-08-01T00:30:51;3.00;;;1.60;;
36137;SDS011;22194;50.046;21.954;2022-08-01T00:33:19;2.30;;;1.30;;
36137;SDS011;22194;50.046;21.954;2022-08-01T00:35:46;1.80;;;1.20;;
36137;SDS011;22194;50.046;21.954;2022-08-01T00:38:14;2.80;;;1.20;;
36137;SDS011;22194;50.046;21.954;2022-08-01T00:40:42;2.40;;;1.30;;
36137;SDS011;22194;50.046;21.954;2022-08-01T00:43:10;1.80;;;1.40;;
36137;SDS011;22194;50.046;21.954;2022-08-01T00:45:37;4.00;;;1.50;;
36137;SDS011;22194;50.046;21.954;2022-08-01T00:48:05;2.80;;;2.00;;
36137;SDS011;22194;50.046;21.954;2022-08-01T00:50:33;5.10;;;1.30;;
36137;SDS011;22194;50.046;21.954;2022-08-01T00:53:01;1.40;;;1.30;;
36137;SDS011;22194;50.046;21.954;2022-08-01T00:55:29;1.50;;;1.20;;
36137;SDS011;22194;50.046;21.954;2022-08-01T00:57:58;9.10;;;2.10;;
36137;SDS011;22194;50.046;21.954;2022-08-01T01:00:33;2.50;;;1.40;;
36137;SDS011;22194;50.046;21.954;2022-08-01T01:03:21;2.20;;;1.10;;
36137;SDS011;22194;50.046;21.954;2022-08-01T01:06:13;2.00;;;1.30;;
36137;SDS011;22194;50.046;21.954;2022-08-01T01:11:32;2.30;;;1.20;;
36137;SDS011;22194;50.046;21.954;2022-08-01T01:14:09;1.10;;;1.10;;
36137;SDS011;22194;50.046;21.954;2022-08-01T01:16:44;1.70;;;1.20;;
36137;SDS011;22194;50.046;21.954;2022-08-01T01:19:13;2.60;;;1.20;;
36137;SDS011;22194;50.046;21.954;2022-08-01T01:27:50;3.70;;;1.10;;
36137;SDS011;22194;50.046;21.954;2022-08-01T01:30:29;2.10;;;0.90;;
36137;SDS011;22194;50.046;21.954;2022-08-01T01:33:02;0.80;;;0.70;;
36137;SDS011;22194;50.046;21.954;2022-08-01T01:35:34;3.00;;;1.00;;
36137;SDS011;22194;50.046;21.954;2022-08-01T01:38:10;0.80;;;0.80;;
36137;SDS011;22194;50.046;21.954;2022-08-01T01:40:45;1.80;;;1.00;;
36137;SDS011;22194;50.046;21.954;2022-08-01T01:43:15;0.60;;;0.60;;
36137;SDS011;22194;50.046;21.954;2022-08-01T01:45:44;2.90;;;0.90;;
36137;SDS011;22194;50.046;21.954;2022-08-01T01:48:18;1.40;;;0.90;;
36137;SDS011;22194;50.046;21.954;2022-08-01T01:50:47;0.70;;;0.70;;
36137;SDS011;22194;50.046;21.954;2022-08-01T01:53:17;1.50;;;0.70;;
36137;SDS011;22194;50.046;21.954;2022-08-01T01:55:48;2.30;;;1.00;;
36137;SDS011;22194;50.046;21.954;2022-08-01T01:58:19;0.80;;;0.80;;
36137;SDS011;22194;50.046;21.954;2022-08-01T02:00:49;1.00;;;0.90;;
36137;SDS011;22194;50.046;21.954;2022-08-01T02:03:19;0.60;;;0.60;;
36137;SDS011;22194;50.046;21.954;2022-08-01T02:05:50;1.40;;;0.50;;
36137;SDS011;22194;50.046;21.954;2022-08-01T02:08:21;0.70;;;0.70;;
36137;SDS011;22194;50.046;21.954;2022-08-01T02:10:51;3.90;;;0.90;;
36137;SDS011;22194;50.046;21.954;2022-08-01T02:13:41;1.10;;;0.50;;
36137;SDS011;22194;50.046;21.954;2022-08-01T02:16:09;1.60;;;1.20;;
36137;SDS011;22194;50.046;21.954;2022-08-01T02:18:41;7.40;;;2.20;;
36137;SDS011;22194;50.046;21.954;2022-08-01T02:21:09;1.20;;;1.10;;
36137;SDS011;22194;50.046;21.954;2022-08-01T02:23:41;2.00;;;1.30;;
36137;SDS011;22194;50.046;21.954;2022-08-01T02:26:10;2.20;;;1.80;;
36137;SDS011;22194;50.046;21.954;2022-08-01T02:28:45;4.60;;;1.70;;
36137;SDS011;22194;50.046;21.954;2022-08-01T02:31:17;3.90;;;1.80;;
36137;SDS011;22194;50.046;21.954;2022-08-01T02:33:58;3.90;;;2.60;;
36137;SDS011;22194;50.046;21.954;2022-08-01T02:36:33;4.00;;;2.60;;
36137;SDS011;22194;50.046;21.954;2022-08-01T02:39:08;5.40;;;3.10;;
36137;SDS011;22194;50.046;21.954;2022-08-01T02:41:38;5.90;;;3.20;;
36137;SDS011;22194;50.046;21.954;2022-08-01T02:46:44;7.10;;;3.30;;
36137;SDS011;22194;50.046;21.954;2022-08-01T02:49:17;8.30;;;3.50;;
36137;SDS011;22194;50.046;21.954;2022-08-01T02:51:48;6.90;;;3.70;;
36137;SDS011;22194;50.046;21.954;2022-08-01T02:54:18;6.60;;;3.70;;
36137;SDS011;22194;50.046;21.954;2022-08-01T02:56:48;7.30;;;4.20;;
36137;SDS011;22194;50.046;21.954;2022-08-01T02:59:19;8.30;;;4.50;;
36137;SDS011;22194;50.046;21.954;2022-08-01T03:01:53;10.70;;;4.70;;
36137;SDS011;22194;50.046;21.954;2022-08-01T03:04:23;11.80;;;4.70;;
36137;SDS011;22194;50.046;21.954;2022-08-01T03:06:53;8.20;;;4.30;;
36137;SDS011;22194;50.046;21.954;2022-08-01T03:09:22;7.20;;;4.40;;
36137;SDS011;22194;50.046;21.954;2022-08-01T03:11:51;6.90;;;3.40;;
36137;SDS011;22194;50.046;21.954;2022-08-01T03:14:21;5.10;;;2.90;;
36137;SDS011;22194;50.046;21.954;2022-08-01T03:16:52;4.60;;;2.60;;
36137;SDS011;22194;50.046;21.954;2022-08-01T03:19:23;3.80;;;2.30;;
36137;SDS011;22194;50.046;21.954;2022-08-01T03:21:53;3.70;;;2.30;;
36137;SDS011;22194;50.046;21.954;2022-08-01T03:24:23;2.80;;;1.90;;
36137;SDS011;22194;50.046;21.954;2022-08-01T03:26:52;2.00;;;1.70;;
36137;SDS011;22194;50.046;21.954;2022-08-01T03:29:22;4.20;;;2.00;;
36137;SDS011;22194;50.046;21.954;2022-08-01T03:31:53;2.90;;;1.40;;
36137;SDS011;22194;50.046;21.954;2022-08-01T03:34:22;1.40;;;1.30;;
36137;SDS011;22194;50.046;21.954;2022-08-01T03:36:55;2.40;;;1.90;;
36137;SDS011;22194;50.046;21.954;2022-08-01T03:39:44;1.30;;;1.20;;
36137;SDS011;22194;50.046;21.954;2022-08-01T03:42:18;2.30;;;1.30;;
36137;SDS011;22194;50.046;21.954;2022-08-01T03:44:52;4.10;;;1.20;;
36137;SDS011;22194;50.046;21.954;2022-08-01T03:47:24;1.20;;;0.90;;
36137;SDS011;22194;50.046;21.954;2022-08-01T03:49:57;1.50;;;1.20;;
36137;SDS011;22194;50.046;21.954;2022-08-01T03:52:26;3.40;;;1.00;;
36137;SDS011;22194;50.046;21.954;2022-08-01T03:54:56;0.80;;;0.80;;
36137;SDS011;22194;50.046;21.954;2022-08-01T03:57:27;1.50;;;0.80;;
36137;SDS011;22194;50.046;21.954;2022-08-01T04:00:04;1.80;;;0.90;;
36137;SDS011;22194;50.046;21.954;2022-08-01T04:02:36;0.90;;;0.80;;
36137;SDS011;22194;50.046;21.954;2022-08-01T04:05:05;4.10;;;1.30;;
36137;SDS011;22194;50.046;21.954;2022-08-01T04:07:33;4.20;;;1.90;;
36137;SDS011;22194;50.046;21.954;2022-08-01T04:12:34;2.60;;;1.40;;
36137;SDS011;22194;50.046;21.954;2022-08-01T04:15:02;2.00;;;1.70;;
36137;SDS011;22194;50.046;21.954;2022-08-01T04:17:31;2.10;;;1.70;;
36137;SDS011;22194;50.046;21.954;2022-08-01T04:19:59;1.60;;;1.50;;
36137;SDS011;22194;50.046;21.954;2022-08-01T04:22:27;1.60;;;1.50;;
36137;SDS011;22194;50.046;21.954;2022-08-01T04:24:55;2.30;;;1.60;;
36137;SDS011;22194;50.046;21.954;2022-08-01T04:27:29;2.10;;;1.70;;
36137;SDS011;22194;50.046;21.954;2022-08-01T04:30:19;3.90;;;1.70;;
36137;SDS011;22194;50.046;21.954;2022-08-01T04:32:54;3.80;;;2.40;;
36137;SDS011;22194;50.046;21.954;2022-08-01T04:35:24;3.90;;;2.10;;
36137;SDS011;22194;50.046;21.954;2022-08-01T04:38:14;6.60;;;3.80;;
36137;SDS011;22194;50.046;21.954;2022-08-01T04:40:46;9.60;;;4.90;;
36137;SDS011;22194;50.046;21.954;2022-08-01T04:43:14;11.00;;;4.80;;
36137;SDS011;22194;50.046;21.954;2022-08-01T04:45:42;10.10;;;5.10;;
36137;SDS011;22194;50.046;21.954;2022-08-01T04:48:11;12.00;;;5.50;;
36137;SDS011;22194;50.046;21.954;2022-08-01T04:50:42;12.90;;;5.30;;
36137;SDS011;22194;50.046;21.954;2022-08-01T04:53:14;10.80;;;5.30;;
36137;SDS011;22194;50.046;21.954;2022-08-01T04:55:45;10.40;;;5.40;;
36137;SDS011;22194;50.046;21.954;2022-08-01T04:58:14;12.50;;;5.20;;
36137;SDS011;22194;50.046;21.954;2022-08-01T05:00:45;9.70;;;5.30;;
36137;SDS011;22194;50.046;21.954;2022-08-01T05:03:14;16.20;;;5.90;;
36137;SDS011;22194;50.046;21.954;2022-08-01T05:05:43;14.30;;;6.90;;
36137;SDS011;22194;50.046;21.954;2022-08-01T05:08:11;15.70;;;6.90;;
36137;SDS011;22194;50.046;21.954;2022-08-01T05:10:38;14.90;;;6.70;;
36137;SDS011;22194;50.046;21.954;2022-08-01T05:13:06;17.50;;;7.10;;
36137;SDS011;22194;50.046;21.954;2022-08-01T05:15:34;20.50;;;8.70;;
36137;SDS011;22194;50.046;21.954;2022-08-01T05:18:04;20.70;;;8.50;;
36137;SDS011;22194;50.046;21.954;2022-08-01T05:20:35;19.60;;;8.80;;
36137;SDS011;22194;50.046;21.954;2022-08-01T05:23:04;23.90;;;9.70;;
36137;SDS011;22194;50.046;21.954;2022-08-01T05:25:36;18.30;;;9.30;;
36137;SDS011;22194;50.046;21.954;2022-08-01T05:28:24;20.90;;;9.20;;
36137;SDS011;22194;50.046;21.954;2022-08-01T05:30:52;20.50;;;9.70;;
36137;SDS011;22194;50.046;21.954;2022-08-01T05:33:22;20.60;;;10.30;;
36137;SDS011;22194;50.046;21.954;2022-08-01T05:35:50;20.90;;;11.10;;
36137;SDS011;22194;50.046;21.954;2022-08-01T05:38:18;18.90;;;10.50;;
36137;SDS011;22194;50.046;21.954;2022-08-01T05:40:46;21.80;;;11.60;;
36137;SDS011;22194;50.046;21.954;2022-08-01T05:43:14;23.70;;;10.70;;
36137;SDS011;22194;50.046;21.954;2022-08-01T05:45:42;22.10;;;11.70;;
36137;SDS011;22194;50.046;21.954;2022-08-01T05:48:09;25.00;;;11.70;;
36137;SDS011;22194;50.046;21.954;2022-08-01T05:50:37;24.80;;;11.70;;
36137;SDS011;22194;50.046;21.954;2022-08-01T05:53:05;20.40;;;10.90;;
36137;SDS011;22194;50.046;21.954;2022-08-01T05:55:34;21.60;;;10.10;;
36137;SDS011;22194;50.046;21.954;2022-08-01T05:58:02;22.70;;;9.60;;
36137;SDS011;22194;50.046;21.954;2022-08-01T06:00:31;18.50;;;8.50;;
36137;SDS011;22194;50.046;21.954;2022-08-01T06:02:59;20.60;;;9.50;;
36137;SDS011;22194;50.046;21.954;2022-08-01T06:05:28;19.00;;;9.20;;
36137;SDS011;22194;50.046;21.954;2022-08-01T06:07:56;19.20;;;10.10;;
36137;SDS011;22194;50.046;21.954;2022-08-01T06:10:25;22.70;;;10.30;;
36137;SDS011;22194;50.046;21.954;2022-08-01T06:12:53;20.90;;;10.70;;
36137;SDS011;22194;50.046;21.954;2022-08-01T06:15:21;18.90;;;9.20;;
36137;SDS011;22194;50.046;21.954;2022-08-01T06:17:49;17.40;;;8.60;;
36137;SDS011;22194;50.046;21.954;2022-08-01T06:20:17;22.80;;;12.20;;
36137;SDS011;22194;50.046;21.954;2022-08-01T06:22:45;30.40;;;12.20;;
36137;SDS011;22194;50.046;21.954;2022-08-01T06:25:19;20.50;;;11.00;;
36137;SDS011;22194;50.046;21.954;2022-08-01T06:27:47;22.60;;;11.50;;
36137;SDS011;22194;50.046;21.954;2022-08-01T06:30:17;22.80;;;11.70;;
36137;SDS011;22194;50.046;21.954;2022-08-01T06:32:45;22.00;;;11.20;;
36137;SDS011;22194;50.046;21.954;2022-08-01T06:35:13;22.20;;;12.10;;
36137;SDS011;22194;50.046;21.954;2022-08-01T06:37:41;22.30;;;11.80;;
36137;SDS011;22194;50.046;21.954;2022-08-01T06:40:10;21.50;;;11.50;;
36137;SDS011;22194;50.046;21.954;2022-08-01T06:42:44;26.50;;;13.50;;
36137;SDS011;22194;50.046;21.954;2022-08-01T06:45:13;25.70;;;13.80;;
36137;SDS011;22194;50.046;21.954;2022-08-01T06:47:42;24.80;;;14.90;;
36137;SDS011;22194;50.046;21.954;2022-08-01T06:50:17;28.90;;;16.80;;
36137;SDS011;22194;50.046;21.954;2022-08-01T06:52:45;25.90;;;14.80;;
36137;SDS011;22194;50.046;21.954;2022-08-01T06:55:14;31.70;;;16.90;;
36137;SDS011;22194;50.046;21.954;2022-08-01T06:57:45;31.30;;;17.10;;
36137;SDS011;22194;50.046;21.954;2022-08-01T07:00:14;29.20;;;17.00;;
36137;SDS011;22194;50.046;21.954;2022-08-01T07:02:46;26.40;;;15.50;;
36137;SDS011;22194;50.046;21.954;2022-08-01T07:05:14;29.50;;;16.70;;
36137;SDS011;22194;50.046;21.954;2022-08-01T07:07:42;27.90;;;16.80;;
36137;SDS011;22194;50.046;21.954;2022-08-01T07:10:10;31.20;;;16.60;;
36137;SDS011;22194;50.046;21.954;2022-08-01T07:12:38;26.60;;;16.20;;
36137;SDS011;22194;50.046;21.954;2022-08-01T07:15:08;28.70;;;16.90;;
36137;SDS011;22194;50.046;21.954;2022-08-01T07:17:38;23.90;;;14.60;;
36137;SDS011;22194;50.046;21.954;2022-08-01T07:20:07;27.30;;;16.20;;
36137;SDS011;22194;50.046;21.954;2022-08-01T07:22:37;26.80;;;15.30;;
36137;SDS011;22194;50.046;21.954;2022-08-01T07:25:05;25.90;;;14.60;;
36137;SDS011;22194;50.046;21.954;2022-08-01T07:27:33;26.20;;;15.10;;
36137;SDS011;22194;50.046;21.954;2022-08-01T07:30:01;26.40;;;14.50;;
36137;SDS011;22194;50.046;21.954;2022-08-01T07:32:30;23.30;;;13.80;;
36137;SDS011;22194;50.046;21.954;2022-08-01T07:34:58;23.20;;;14.40;;
36137;SDS011;22194;50.046;21.954;2022-08-01T07:37:26;23.30;;;14.10;;
36137;SDS011;22194;50.046;21.954;2022-08-01T07:40:14;24.50;;;13.00;;
36137;SDS011;22194;50.046;21.954;2022-08-01T07:42:42;22.70;;;14.10;;
36137;SDS011;22194;50.046;21.954;2022-08-01T07:45:12;26.70;;;14.10;;
36137;SDS011;22194;50.046;21.954;2022-08-01T07:47:41;22.90;;;13.50;;
36137;SDS011;22194;50.046;21.954;2022-08-01T07:50:09;22.90;;;12.90;;
36137;SDS011;22194;50.046;21.954;2022-08-01T07:52:38;21.60;;;13.00;;
36137;SDS011;22194;50.046;21.954;2022-08-01T07:55:06;23.10;;;14.00;;
36137;SDS011;22194;50.046;21.954;2022-08-01T07:57:34;23.60;;;13.60;;
36137;SDS011;22194;50.046;21.954;2022-08-01T08:00:03;21.70;;;12.80;;
36137;SDS011;22194;50.046;21.954;2022-08-01T08:02:33;20.10;;;12.30;;
36137;SDS011;22194;50.046;21.954;2022-08-01T08:05:01;21.10;;;12.00;;
36137;SDS011;22194;50.046;21.954;2022-08-01T08:07:32;20.80;;;12.00;;
36137;SDS011;22194;50.046;21.954;2022-08-01T08:09:59;20.90;;;10.60;;
36137;SDS011;22194;50.046;21.954;2022-08-01T08:12:27;20.00;;;11.10;;
36137;SDS011;22194;50.046;21.954;2022-08-01T08:14:56;18.80;;;10.90;;
36137;SDS011;22194;50.046;21.954;2022-08-01T08:17:26;17.70;;;8.90;;
36137;SDS011;22194;50.046;21.954;2022-08-01T08:19:54;17.20;;;9.20;;
36137;SDS011;22194;50.046;21.954;2022-08-01T08:22:22;17.50;;;9.90;;
36137;SDS011;22194;50.046;21.954;2022-08-01T08:24:50;17.00;;;8.80;;
36137;SDS011;22194;50.046;21.954;2022-08-01T08:27:18;18.30;;;8.50;;
36137;SDS011;22194;50.046;21.954;2022-08-01T08:29:46;14.30;;;7.70;;
36137;SDS011;22194;50.046;21.954;2022-08-01T08:32:14;15.00;;;8.30;;
36137;SDS011;22194;50.046;21.954;2022-08-01T08:34:42;14.50;;;7.40;;
36137;SDS011;22194;50.046;21.954;2022-08-01T08:37:09;13.40;;;7.00;;
36137;SDS011;22194;50.046;21.954;2022-08-01T08:39:37;14.80;;;7.30;;
36137;SDS011;22194;50.046;21.954;2022-08-01T08:42:09;15.70;;;9.10;;
36137;SDS011;22194;50.046;21.954;2022-08-01T08:44:40;16.40;;;9.00;;
36137;SDS011;22194;50.046;21.954;2022-08-01T08:47:11;17.70;;;10.50;;
36137;SDS011;22194;50.046;21.954;2022-08-01T08:49:46;17.40;;;9.60;;
36137;SDS011;22194;50.046;21.954;2022-08-01T08:52:17;18.00;;;10.50;;
36137;SDS011;22194;50.046;21.954;2022-08-01T08:54:47;18.00;;;9.80;;
36137;SDS011;22194;50.046;21.954;2022-08-01T08:57:17;20.20;;;9.40;;
36137;SDS011;22194;50.046;21.954;2022-08-01T08:59:47;16.00;;;8.20;;
36137;SDS011;22194;50.046;21.954;2022-08-01T09:02:15;15.10;;;8.70;;
36137;SDS011;22194;50.046;21.954;2022-08-01T09:04:43;17.50;;;8.30;;
36137;SDS011;22194;50.046;21.954;2022-08-01T09:07:11;15.00;;;7.50;;
36137;SDS011;22194;50.046;21.954;2022-08-01T09:09:41;16.10;;;7.40;;
36137;SDS011;22194;50.046;21.954;2022-08-01T09:12:10;14.40;;;6.80;;
36137;SDS011;22194;50.046;21.954;2022-08-01T09:14:43;13.80;;;6.80;;
36137;SDS011;22194;50.046;21.954;2022-08-01T09:17:13;10.70;;;6.10;;
36137;SDS011;22194;50.046;21.954;2022-08-01T09:19:45;13.30;;;6.00;;
36137;SDS011;22194;50.046;21.954;2022-08-01T09:22:16;13.20;;;7.00;;
36137;SDS011;22194;50.046;21.954;2022-08-01T09:27:27;17.40;;;7.10;;
36137;SDS011;22194;50.046;21.954;2022-08-01T09:30:07;11.60;;;6.30;;
36137;SDS011;22194;50.046;21.954;2022-08-01T09:32:57;9.90;;;5.20;;
36137;SDS011;22194;50.046;21.954;2022-08-01T09:35:29;8.40;;;4.50;;
36137;SDS011;22194;50.046;21.954;2022-08-01T09:38:17;12.40;;;5.20;;
36137;SDS011;22194;50.046;21.954;2022-08-01T09:43:26;8.50;;;4.50;;
36137;SDS011;22194;50.046;21.954;2022-08-01T09:45:58;11.40;;;5.90;;
36137;SDS011;22194;50.046;21.954;2022-08-01T09:48:27;9.60;;;5.50;;
36137;SDS011;22194;50.046;21.954;2022-08-01T09:50:57;9.00;;;4.90;;
36137;SDS011;22194;50.046;21.954;2022-08-01T09:54:08;9.10;;;4.40;;
36137;SDS011;22194;50.046;21.954;2022-08-01T09:56:29;4.50;;;3.40;;
36137;SDS011;22194;50.046;21.954;2022-08-01T09:59:06;6.50;;;3.60;;
36137;SDS011;22194;50.046;21.954;2022-08-01T10:01:44;5.70;;;4.00;;
36137;SDS011;22194;50.046;21.954;2022-08-01T10:04:15;6.90;;;3.90;;
36137;SDS011;22194;50.046;21.954;2022-08-01T10:06:45;11.10;;;4.50;;
36137;SDS011;22194;50.046;21.954;2022-08-01T10:09:28;10.00;;;4.50;;
36137;SDS011;22194;50.046;21.954;2022-08-01T10:12:08;7.40;;;3.60;;
36137;SDS011;22194;50.046;21.954;2022-08-01T10:14:42;6.40;;;4.30;;
36137;SDS011;22194;50.046;21.954;2022-08-01T10:17:17;6.10;;;3.70;;
36137;SDS011;22194;50.046;21.954;2022-08-01T10:19:49;7.40;;;3.80;;
36137;SDS011;22194;50.046;21.954;2022-08-01T10:22:25;6.70;;;4.30;;
36137;SDS011;22194;50.046;21.954;2022-08-01T10:24:55;5.90;;;3.30;;
36137;SDS011;22194;50.046;21.954;2022-08-01T10:27:24;10.60;;;3.70;;
36137;SDS011;22194;50.046;21.954;2022-08-01T10:30:06;6.20;;;3.40;;
36137;SDS011;22194;50.046;21.954;2022-08-01T10:32:48;8.00;;;3.70;;
36137;SDS011;22194;50.046;21.954;2022-08-01T10:35:17;7.60;;;3.90;;
36137;SDS011;22194;50.046;21.954;2022-08-01T10:38:06;6.80;;;3.90;;
36137;SDS011;22194;50.046;21.954;2022-08-01T10:40:40;10.50;;;4.60;;
36137;SDS011;22194;50.046;21.954;2022-08-01T10:43:09;7.00;;;4.40;;
36137;SDS011;22194;50.046;21.954;2022-08-01T10:45:38;9.50;;;5.00;;
36137;SDS011;22194;50.046;21.954;2022-08-01T10:48:20;12.80;;;5.00;;
36137;SDS011;22194;50.046;21.954;2022-08-01T10:50:58;10.10;;;5.10;;
36137;SDS011;22194;50.046;21.954;2022-08-01T10:53:27;10.90;;;5.30;;
36137;SDS011;22194;50.046;21.954;2022-08-01T10:56:08;11.80;;;5.50;;
36137;SDS011;22194;50.046;21.954;2022-08-01T10:58:41;10.40;;;5.50;;
36137;SDS011;22194;50.046;21.954;2022-08-01T11:01:24;9.90;;;5.30;;
36137;SDS011;22194;50.046;21.954;2022-08-01T11:04:02;10.30;;;5.30;;
36137;SDS011;22194;50.046;21.954;2022-08-01T11:09:02;9.40;;;5.30;;
36137;SDS011;22194;50.046;21.954;2022-08-01T11:11:33;13.70;;;5.60;;
36137;SDS011;22194;50.046;21.954;2022-08-01T11:14:24;11.00;;;5.50;;
36137;SDS011;22194;50.046;21.954;2022-08-01T11:20:09;10.40;;;3.90;;
36137;SDS011;22194;50.046;21.954;2022-08-01T11:28:25;7.60;;;3.90;;
36137;SDS011;22194;50.046;21.954;2022-08-01T11:38:43;7.00;;;3.60;;
36137;SDS011;22194;50.046;21.954;2022-08-01T11:44:06;6.20;;;3.30;;
36137;SDS011;22194;50.046;21.954;2022-08-01T11:46:54;6.20;;;3.30;;
36137;SDS011;22194;50.046;21.954;2022-08-01T11:52:06;6.40;;;3.80;;
36137;SDS011;22194;50.046;21.954;2022-08-01T11:54:37;15.30;;;5.00;;
36137;SDS011;22194;50.046;21.954;2022-08-01T11:57:08;6.30;;;3.70;;
36137;SDS011;22194;50.046;21.954;2022-08-01T11:59:51;9.70;;;4.40;;
36137;SDS011;22194;50.046;21.954;2022-08-01T12:02:31;7.00;;;4.20;;
36137;SDS011;22194;50.046;21.954;2022-08-01T12:07:35;14.70;;;5.30;;
36137;SDS011;22194;50.046;21.954;2022-08-01T12:10:10;9.10;;;4.50;;
36137;SDS011;22194;50.046;21.954;2022-08-01T12:12:44;9.20;;;4.90;;
36137;SDS011;22194;50.046;21.954;2022-08-01T12:15:13;8.10;;;4.50;;
36137;SDS011;22194;50.046;21.954;2022-08-01T12:17:44;7.80;;;4.50;;
36137;SDS011;22194;50.046;21.954;2022-08-01T12:20:27;9.60;;;4.70;;
36137;SDS011;22194;50.046;21.954;2022-08-01T12:23:02;8.90;;;4.70;;
36137;SDS011;22194;50.046;21.954;2022-08-01T12:25:37;9.80;;;4.80;;
36137;SDS011;22194;50.046;21.954;2022-08-01T12:28:15;7.50;;;4.30;;
36137;SDS011;22194;50.046;21.954;2022-08-01T12:30:46;8.20;;;4.50;;
36137;SDS011;22194;50.046;21.954;2022-08-01T12:33:17;11.20;;;4.50;;
36137;SDS011;22194;50.046;21.954;2022-08-01T12:35:46;8.90;;;4.40;;
36137;SDS011;22194;50.046;21.954;2022-08-01T12:38:15;8.20;;;4.10;;
36137;SDS011;22194;50.046;21.954;2022-08-01T12:40:45;7.90;;;4.10;;
36137;SDS011;22194;50.046;21.954;2022-08-01T12:43:20;11.90;;;4.90;;
36137;SDS011;22194;50.046;21.954;2022-08-01T12:45:56;9.00;;;4.20;;
36137;SDS011;22194;50.046;21.954;2022-08-01T12:48:26;9.80;;;5.00;;
36137;SDS011;22194;50.046;21.954;2022-08-01T12:50:57;10.60;;;4.10;;
36137;SDS011;22194;50.046;21.954;2022-08-01T12:53:28;8.60;;;4.40;;
36137;SDS011;22194;50.046;21.954;2022-08-01T12:56:08;6.10;;;3.80;;
36137;SDS011;22194;50.046;21.954;2022-08-01T12:58:38;9.80;;;3.90;;
36137;SDS011;22194;50.046;21.954;2022-08-01T13:01:10;11.90;;;4.40;;
36137;SDS011;22194;50.046;21.954;2022-08-01T13:06:11;7.50;;;4.30;;
36137;SDS011;22194;50.046;21.954;2022-08-01T13:08:44;6.70;;;3.90;;
36137;SDS011;22194;50.046;21.954;2022-08-01T13:11:13;8.60;;;3.70;;
36137;SDS011;22194;50.046;21.954;2022-08-01T13:13:46;8.70;;;4.60;;
36137;SDS011;22194;50.046;21.954;2022-08-01T13:16:19;6.10;;;3.80;;
36137;SDS011;22194;50.046;21.954;2022-08-01T13:19:04;7.90;;;3.90;;
36137;SDS011;22194;50.046;21.954;2022-08-01T13:21:33;6.50;;;3.70;;
36137;SDS011;22194;50.046;21.954;2022-08-01T13:24:25;8.00;;;3.80;;
36137;SDS011;22194;50.046;21.954;2022-08-01T13:26:55;7.50;;;4.20;;
36137;SDS011;22194;50.046;21.954;2022-08-01T13:29:35;7.90;;;4.20;;
36137;SDS011;22194;50.046;21.954;2022-08-01T13:32:18;7.00;;;4.50;;
36137;SDS011;22194;50.046;21.954;2022-08-01T13:35:00;9.10;;;4.70;;
36137;SDS011;22194;50.046;21.954;2022-08-01T13:37:30;6.60;;;3.90;;
36137;SDS011;22194;50.046;21.954;2022-08-01T13:39:59;8.10;;;4.10;;
36137;SDS011;22194;50.046;21.954;2022-08-01T13:42:26;8.20;;;4.10;;
36137;SDS011;22194;50.046;21.954;2022-08-01T13:44:56;9.90;;;4.40;;
36137;SDS011;22194;50.046;21.954;2022-08-01T13:47:27;6.50;;;4.00;;
36137;SDS011;22194;50.046;21.954;2022-08-01T13:50:01;6.80;;;3.70;;
36137;SDS011;22194;50.046;21.954;2022-08-01T13:52:30;9.60;;;3.90;;
36137;SDS011;22194;50.046;21.954;2022-08-01T13:54:58;7.20;;;4.00;;
36137;SDS011;22194;50.046;21.954;2022-08-01T13:57:27;8.10;;;4.40;;
36137;SDS011;22194;50.046;21.954;2022-08-01T14:00:04;11.30;;;4.80;;
36137;SDS011;22194;50.046;21.954;2022-08-01T14:02:34;8.10;;;4.30;;
36137;SDS011;22194;50.046;21.954;2022-08-01T14:05:01;10.70;;;4.70;;
36137;SDS011;22194;50.046;21.954;2022-08-01T14:07:30;10.10;;;4.60;;
36137;SDS011;22194;50.046;21.954;2022-08-01T14:09:58;7.80;;;4.00;;
36137;SDS011;22194;50.046;21.954;2022-08-01T14:12:46;12.10;;;4.60;;
36137;SDS011;22194;50.046;21.954;2022-08-01T14:15:15;9.60;;;4.80;;
36137;SDS011;22194;50.046;21.954;2022-08-01T14:18:04;11.30;;;4.40;;
36137;SDS011;22194;50.046;21.954;2022-08-01T14:20:34;9.60;;;4.80;;
36137;SDS011;22194;50.046;21.954;2022-08-01T14:23:02;9.00;;;4.50;;
36137;SDS011;22194;50.046;21.954;2022-08-01T14:25:37;9.70;;;4.60;;
36137;SDS011;22194;50.046;21.954;2022-08-01T14:28:27;9.00;;;4.30;;
36137;SDS011;22194;50.046;21.954;2022-08-01T14:30:56;10.70;;;4.50;;
36137;SDS011;22194;50.046;21.954;2022-08-01T14:33:25;7.60;;;4.50;;
36137;SDS011;22194;50.046;21.954;2022-08-01T14:35:53;10.20;;;4.50;;
36137;SDS011;22194;50.046;21.954;2022-08-01T14:38:33;9.50;;;4.70;;
36137;SDS011;22194;50.046;21.954;2022-08-01T14:41:01;11.60;;;5.20;;
36137;SDS011;22194;50.046;21.954;2022-08-01T14:43:31;18.00;;;5.30;;
36137;SDS011;22194;50.046;21.954;2022-08-01T14:46:01;8.90;;;4.40;;
36137;SDS011;22194;50.046;21.954;2022-08-01T14:48:31;14.20;;;5.20;;
36137;SDS011;22194;50.046;21.954;2022-08-01T14:50:59;8.10;;;4.10;;
36137;SDS011;22194;50.046;21.954;2022-08-01T14:53:30;8.20;;;4.30;;
36137;SDS011;22194;50.046;21.954;2022-08-01T14:56:03;10.60;;;4.60;;
36137;SDS011;22194;50.046;21.954;2022-08-01T14:58:32;11.30;;;4.80;;
36137;SDS011;22194;50.046;21.954;2022-08-01T15:01:00;9.80;;;4.60;;
36137;SDS011;22194;50.046;21.954;2022-08-01T15:03:28;8.00;;;4.60;;
36137;SDS011;22194;50.046;21.954;2022-08-01T15:05:56;7.10;;;4.30;;
36137;SDS011;22194;50.046;21.954;2022-08-01T15:08:24;8.40;;;4.10;;
36137;SDS011;22194;50.046;21.954;2022-08-01T15:10:51;10.40;;;4.20;;
36137;SDS011;22194;50.046;21.954;2022-08-01T15:13:19;9.00;;;4.00;;
36137;SDS011;22194;50.046;21.954;2022-08-01T15:15:47;7.90;;;4.00;;
36137;SDS011;22194;50.046;21.954;2022-08-01T15:18:15;8.50;;;4.20;;
36137;SDS011;22194;50.046;21.954;2022-08-01T15:20:43;7.90;;;3.80;;
36137;SDS011;22194;50.046;21.954;2022-08-01T15:23:12;9.40;;;4.00;;
36137;SDS011;22194;50.046;21.954;2022-08-01T15:25:40;9.30;;;4.00;;
36137;SDS011;22194;50.046;21.954;2022-08-01T15:28:09;9.40;;;3.90;;
36137;SDS011;22194;50.046;21.954;2022-08-01T15:30:37;9.60;;;3.90;;
36137;SDS011;22194;50.046;21.954;2022-08-01T15:33:05;7.20;;;3.90;;
36137;SDS011;22194;50.046;21.954;2022-08-01T15:35:34;9.20;;;3.40;;
36137;SDS011;22194;50.046;21.954;2022-08-01T15:38:02;9.00;;;4.40;;
36137;SDS011;22194;50.046;21.954;2022-08-01T15:40:29;6.20;;;3.60;;